Albany, GA (31702)

9:42 PM EDT on July 31, 2014 (GMT -0400)
Grand Island Club (KGAALBAN4) Elev 259 ft | 31.62 °N, 84.21 °W | Change Station

Current weather conditions updated 4 minutes ago

Clear
Clear
76.7 °F
Feels Like 78 °F
N
0.0
Wind Variable Wind from South
Gusts 0.0 mph

Tomorrow is forecast to be nearly the same temperature as today.

Today
High -- | Low -- °F
--% Chance of Precip.
Yesterday
High -- | Low -- °F
Precip. -- in
6:52 AM 8:33 PM
Waxing Crescent, 22% visible
Pressure 29.98 in
Visibility 10.0 miles
Clouds Clear
Heat Index 78 °F
Dew Point 69 °F
Humidity 77%
Rainfall 0.00 in
Snow Depth Not available.
UV 0 out of 12
Pollen 5.60 out of 12
Air Quality Not available.
Flu Activity Not available.
METAR KABY 010053Z 00000KT 10SM CLR 28/18 A2999 RMK AO2 SLP152 T02780183

More Conditions Fewer Conditions

Pressure 29.98 in
Visibility 10.0 miles
Clouds Clear
Heat Index 78 °F
Dew Point 69 °F
Humidity 77%
Rainfall 0.00 in
Snow Depth Not available.
UV 0 out of 12
Pollen 5.60 out of 12
Air Quality Not available.
Flu Activity Not available.
METAR KABY 010053Z 00000KT 10SM CLR 28/18 A2999 RMK AO2 SLP152 T02780183

More Conditions Fewer Conditions

10-Day Weather Forecast

Almanac

Astronomy

Jul. 31, 2014 Rise Set
Actual Time 6:52 AM EDT 8:33 PM EDT
Civil Twilight 6:25 AM EDT 9:00 PM EDT
Nautical Twilight 5:53 AM EDT 9:32 PM EDT
Astronomical Twilight 5:20 AM EDT 10:05 PM EDT
Moon 10:59 AM EDT (7/31) 11:07 PM EDT (7/31)
Length of Visible Light 14h 34m
Length of Day
13h 41m
Tomorrow will be 1m 25s shorter.
Waxing Crescent, 22% of the Moon is Illuminated
Today
Waxing Crescent
Aug 3
First Quarter
Aug 10
Full
Aug 17
Last Quarter
Aug 25
New

Today's Extremes

State Highs State Lows

Community

WunderPhotos

Upload Photos

1,739,490 photos uploaded!

Nearby

Snow Depth

Station Depth Elevation
No new snow has been reported.

Earthquake Activity

City Distance Mag. Time & Date
No recent earthquake activity has been reported nearby.
Minimum magnitude displayed is 2.5.

Coastal Water Temperatures

Place Temperature
No Stations Reporting

Nearby Weather Stations

Station Location Temp. Heat Index Dew Point Humidity Wind Precip. Elev Updated Type
Grand Island Club, Albany, GA 76.7 °F 78 °F 69 °F 77% South  at  0.0 mph 0.00 in / hr 259 ft 9:38 PM EDT Normal
Worth County High School, Sylvester, GA 79.4 °F 82 °F 67 °F 66% SW  at  0.0 mph 0.00 in / hr 436 ft 9:40 PM EDT Normal

Show More Stations Show Fewer Stations